sensor_id;sensor_type;location;lat;lon;timestamp;pressure;altitude;pressure_sealevel;temperature;humidity
47104;BME280;32853;52.164;5.400;2022-10-24T00:01:17;100265.34;;;17.29;100.00
47104;BME280;32853;52.164;5.400;2022-10-24T00:03:53;100260.66;;;17.33;100.00
47104;BME280;32853;52.164;5.400;2022-10-24T00:06:22;100215.69;;;16.99;100.00
47104;BME280;32853;52.164;5.400;2022-10-24T00:08:49;100161.97;;;16.76;100.00
47104;BME280;32853;52.164;5.400;2022-10-24T00:11:24;100161.97;;;16.76;100.00
47104;BME280;32853;52.164;5.400;2022-10-24T00:13:54;100089.50;;;16.45;100.00
47104;BME280;32853;52.164;5.400;2022-10-24T00:16:28;100183.16;;;17.10;100.00
47104;BME280;32853;52.164;5.400;2022-10-24T00:18:56;100260.78;;;17.42;100.00
47104;BME280;32853;52.164;5.400;2022-10-24T00:21:29;100251.16;;;17.41;100.00
47104;BME280;32853;52.164;5.400;2022-10-24T00:23:55;100129.56;;;16.74;100.00
47104;BME280;32853;52.164;5.400;2022-10-24T00:26:42;100243.47;;;17.38;100.00
47104;BME280;32853;52.164;5.400;2022-10-24T00:29:08;100233.50;;;17.31;100.00
47104;BME280;32853;52.164;5.400;2022-10-24T00:31:37;100244.78;;;17.33;100.00
47104;BME280;32853;52.164;5.400;2022-10-24T00:34:09;100172.91;;;17.05;100.00
47104;BME280;32853;52.164;5.400;2022-10-24T00:36:34;100043.63;;;16.24;100.00
47104;BME280;32853;52.164;5.400;2022-10-24T00:39:00;100101.31;;;16.64;100.00
47104;BME280;32853;52.164;5.400;2022-10-24T00:41:29;100224.38;;;17.35;100.00
47104;BME280;32853;52.164;5.400;2022-10-24T00:44:22;100219.53;;;17.40;100.00
47104;BME280;32853;52.164;5.400;2022-10-24T00:47:02;100196.50;;;17.20;100.00
47104;BME280;32853;52.164;5.400;2022-10-24T00:49:31;100197.06;;;17.12;100.00
47104;BME280;32853;52.164;5.400;2022-10-24T00:52:05;100218.94;;;17.36;100.00
47104;BME280;32853;52.164;5.400;2022-10-24T00:54:33;100094.41;;;16.50;100.00
47104;BME280;32853;52.164;5.400;2022-10-24T00:57:21;100215.72;;;17.33;100.00
47104;BME280;32853;52.164;5.400;2022-10-24T00:59:52;100154.91;;;16.88;100.00
47104;BME280;32853;52.164;5.400;2022-10-24T01:02:19;100014.19;;;15.95;100.00
47104;BME280;32853;52.164;5.400;2022-10-24T01:04:46;100215.00;;;17.20;100.00
47104;BME280;32853;52.164;5.400;2022-10-24T01:16:23;100218.47;;;17.20;100.00
47104;BME280;32853;52.164;5.400;2022-10-24T01:19:12;100207.19;;;17.29;100.00
47104;BME280;32853;52.164;5.400;2022-10-24T01:21:52;100214.63;;;17.24;100.00
47104;BME280;32853;52.164;5.400;2022-10-24T01:27:25;100209.94;;;17.28;100.00
47104;BME280;32853;52.164;5.400;2022-10-24T01:30:10;100204.66;;;17.28;100.00
47104;BME280;32853;52.164;5.400;2022-10-24T01:35:51;100190.97;;;17.34;100.00
47104;BME280;32853;52.164;5.400;2022-10-24T01:38:40;100187.72;;;17.30;100.00
47104;BME280;32853;52.164;5.400;2022-10-24T01:41:18;100186.41;;;17.25;100.00
47104;BME280;32853;52.164;5.400;2022-10-24T01:44:19;100178.72;;;17.33;100.00
47104;BME280;32853;52.164;5.400;2022-10-24T01:46:52;100180.97;;;17.26;100.00
47104;BME280;32853;52.164;5.400;2022-10-24T01:49:22;100182.53;;;17.18;100.00
47104;BME280;32853;52.164;5.400;2022-10-24T01:51:52;100107.94;;;16.80;100.00
47104;BME280;32853;52.164;5.400;2022-10-24T01:54:20;100105.06;;;16.72;100.00
47104;BME280;32853;52.164;5.400;2022-10-24T01:56:45;100146.50;;;17.05;100.00
47104;BME280;32853;52.164;5.400;2022-10-24T02:02:02;100172.47;;;17.23;100.00
47104;BME280;32853;52.164;5.400;2022-10-24T02:04:31;100150.09;;;17.27;100.00
47104;BME280;32853;52.164;5.400;2022-10-24T02:07:00;100116.72;;;17.14;100.00
47104;BME280;32853;52.164;5.400;2022-10-24T02:09:27;100134.50;;;17.12;100.00
47104;BME280;32853;52.164;5.400;2022-10-24T02:11:55;100143.28;;;17.24;100.00
47104;BME280;32853;52.164;5.400;2022-10-24T02:14:41;100096.09;;;17.08;100.00
47104;BME280;32853;52.164;5.400;2022-10-24T02:17:09;100114.22;;;17.13;100.00
47104;BME280;32853;52.164;5.400;2022-10-24T02:19:35;100143.97;;;17.49;100.00
47104;BME280;32853;52.164;5.400;2022-10-24T02:24:39;100052.97;;;16.97;100.00
47104;BME280;32853;52.164;5.400;2022-10-24T02:27:09;100085.72;;;17.17;100.00
47104;BME280;32853;52.164;5.400;2022-10-24T02:29:41;100166.44;;;17.54;100.00
47104;BME280;32853;52.164;5.400;2022-10-24T02:32:14;100085.00;;;17.14;100.00
47104;BME280;32853;52.164;5.400;2022-10-24T02:34:41;100135.91;;;17.39;100.00
47104;BME280;32853;52.164;5.400;2022-10-24T02:37:09;100118.41;;;17.16;100.00
47104;BME280;32853;52.164;5.400;2022-10-24T02:39:36;100089.72;;;17.11;100.00
47104;BME280;32853;52.164;5.400;2022-10-24T02:42:04;100042.66;;;16.71;100.00
47104;BME280;32853;52.164;5.400;2022-10-24T02:44:31;100119.38;;;17.14;100.00
47104;BME280;32853;52.164;5.400;2022-10-24T02:47:00;100099.06;;;17.04;100.00
47104;BME280;32853;52.164;5.400;2022-10-24T02:49:27;100045.41;;;16.70;100.00
47104;BME280;32853;52.164;5.400;2022-10-24T02:51:53;100149.97;;;17.39;100.00
47104;BME280;32853;52.164;5.400;2022-10-24T02:54:19;100100.63;;;17.06;100.00
47104;BME280;32853;52.164;5.400;2022-10-24T02:56:51;100155.16;;;17.41;100.00
47104;BME280;32853;52.164;5.400;2022-10-24T02:59:17;100112.91;;;17.19;100.00
47104;BME280;32853;52.164;5.400;2022-10-24T03:01:43;100082.63;;;16.89;100.00
47104;BME280;32853;52.164;5.400;2022-10-24T03:04:08;100137.00;;;17.36;100.00
47104;BME280;32853;52.164;5.400;2022-10-24T03:06:34;100141.94;;;17.41;100.00
47104;BME280;32853;52.164;5.400;2022-10-24T03:08:59;100147.00;;;17.33;100.00
47104;BME280;32853;52.164;5.400;2022-10-24T03:11:24;100148.31;;;17.38;100.00
47104;BME280;32853;52.164;5.400;2022-10-24T03:13:50;100034.97;;;16.68;100.00
47104;BME280;32853;52.164;5.400;2022-10-24T03:16:15;100124.06;;;17.33;100.00
47104;BME280;32853;52.164;5.400;2022-10-24T03:18:41;99963.28;;;16.17;100.00
47104;BME280;32853;52.164;5.400;2022-10-24T03:21:06;100032.75;;;16.62;100.00
47104;BME280;32853;52.164;5.400;2022-10-24T03:23:32;100091.38;;;17.12;100.00
47104;BME280;32853;52.164;5.400;2022-10-24T03:25:58;100023.81;;;16.76;100.00
47104;BME280;32853;52.164;5.400;2022-10-24T03:28:24;100149.13;;;17.39;100.00
47104;BME280;32853;52.164;5.400;2022-10-24T03:30:49;100142.78;;;17.41;100.00
47104;BME280;32853;52.164;5.400;2022-10-24T03:33:16;100059.19;;;16.73;100.00
47104;BME280;32853;52.164;5.400;2022-10-24T03:36:09;100146.38;;;17.18;100.00
47104;BME280;32853;52.164;5.400;2022-10-24T03:38:40;100103.50;;;16.81;100.00
47104;BME280;32853;52.164;5.400;2022-10-24T03:41:22;100150.59;;;17.21;100.00
47104;BME280;32853;52.164;5.400;2022-10-24T03:44:00;100145.44;;;17.19;100.00
47104;BME280;32853;52.164;5.400;2022-10-24T03:46:25;100112.03;;;16.96;100.00
47104;BME280;32853;52.164;5.400;2022-10-24T03:48:52;100144.81;;;17.16;100.00
47104;BME280;32853;52.164;5.400;2022-10-24T03:51:18;100075.78;;;16.75;100.00
47104;BME280;32853;52.164;5.400;2022-10-24T03:53:43;100151.78;;;17.17;100.00
47104;BME280;32853;52.164;5.400;2022-10-24T03:56:08;100142.56;;;17.11;100.00
47104;BME280;32853;52.164;5.400;2022-10-24T03:58:34;100114.66;;;16.96;100.00
47104;BME280;32853;52.164;5.400;2022-10-24T04:00:59;100132.94;;;17.10;100.00
47104;BME280;32853;52.164;5.400;2022-10-24T04:03:33;100147.25;;;17.19;100.00
47104;BME280;32853;52.164;5.400;2022-10-24T04:09:39;100151.78;;;17.28;100.00
47104;BME280;32853;52.164;5.400;2022-10-24T04:12:05;100143.53;;;17.21;100.00
47104;BME280;32853;52.164;5.400;2022-10-24T04:15:00;100143.97;;;17.26;100.00
47104;BME280;32853;52.164;5.400;2022-10-24T04:20:47;100136.06;;;17.15;100.00
47104;BME280;32853;52.164;5.400;2022-10-24T04:26:59;100137.16;;;17.24;100.00
47104;BME280;32853;52.164;5.400;2022-10-24T04:29:34;100138.69;;;17.26;100.00
47104;BME280;32853;52.164;5.400;2022-10-24T04:32:13;100141.97;;;17.19;100.00
47104;BME280;32853;52.164;5.400;2022-10-24T04:34:49;100125.63;;;17.13;100.00
47104;BME280;32853;52.164;5.400;2022-10-24T04:37:29;100136.06;;;17.26;100.00
47104;BME280;32853;52.164;5.400;2022-10-24T04:39:58;100102.56;;;17.04;100.00
47104;BME280;32853;52.164;5.400;2022-10-24T04:42:29;100141.22;;;17.28;100.00
47104;BME280;32853;52.164;5.400;2022-10-24T04:45:09;100113.75;;;17.19;100.00
47104;BME280;32853;52.164;5.400;2022-10-24T04:47:35;100131.72;;;17.25;100.00
47104;BME280;32853;52.164;5.400;2022-10-24T04:50:00;100145.53;;;17.29;100.00
47104;BME280;32853;52.164;5.400;2022-10-24T04:52:25;100100.16;;;17.01;100.00
47104;BME280;32853;52.164;5.400;2022-10-24T04:54:52;100096.19;;;17.07;100.00
47104;BME280;32853;52.164;5.400;2022-10-24T04:57:17;100114.78;;;17.17;100.00
47104;BME280;32853;52.164;5.400;2022-10-24T04:59:43;100134.97;;;17.40;100.00
47104;BME280;32853;52.164;5.400;2022-10-24T05:02:09;100109.50;;;17.17;100.00
47104;BME280;32853;52.164;5.400;2022-10-24T05:04:34;100129.59;;;17.30;100.00
47104;BME280;32853;52.164;5.400;2022-10-24T05:07:00;100118.53;;;17.25;100.00
47104;BME280;32853;52.164;5.400;2022-10-24T05:09:25;100131.97;;;17.33;100.00
47104;BME280;32853;52.164;5.400;2022-10-24T05:11:53;99966.75;;;16.40;100.00
47104;BME280;32853;52.164;5.400;2022-10-24T05:14:19;100101.47;;;17.29;100.00
47104;BME280;32853;52.164;5.400;2022-10-24T05:16:54;100076.38;;;17.12;100.00
47104;BME280;32853;52.164;5.400;2022-10-24T05:19:20;100141.72;;;17.33;100.00
47104;BME280;32853;52.164;5.400;2022-10-24T05:21:45;100083.59;;;16.99;100.00
47104;BME280;32853;52.164;5.400;2022-10-24T05:24:16;100090.78;;;17.20;100.00
47104;BME280;32853;52.164;5.400;2022-10-24T05:26:52;100141.22;;;17.39;100.00
47104;BME280;32853;52.164;5.400;2022-10-24T05:29:20;100137.00;;;17.36;100.00
47104;BME280;32853;52.164;5.400;2022-10-24T05:31:52;100132.09;;;17.21;100.00
47104;BME280;32853;52.164;5.400;2022-10-24T05:34:18;100130.31;;;17.21;100.00
47104;BME280;32853;52.164;5.400;2022-10-24T05:36:44;100139.31;;;17.41;100.00
47104;BME280;32853;52.164;5.400;2022-10-24T05:39:09;100131.84;;;17.35;100.00
47104;BME280;32853;52.164;5.400;2022-10-24T05:41:34;100140.16;;;17.30;100.00
47104;BME280;32853;52.164;5.400;2022-10-24T05:44:03;100097.97;;;17.18;100.00
47104;BME280;32853;52.164;5.400;2022-10-24T05:46:28;100106.16;;;17.26;100.00
47104;BME280;32853;52.164;5.400;2022-10-24T05:48:53;100063.56;;;16.97;100.00
47104;BME280;32853;52.164;5.400;2022-10-24T05:51:19;99932.81;;;16.24;100.00
47104;BME280;32853;52.164;5.400;2022-10-24T05:53:45;100134.94;;;17.51;100.00
47104;BME280;32853;52.164;5.400;2022-10-24T05:56:10;100085.13;;;17.13;100.00
47104;BME280;32853;52.164;5.400;2022-10-24T05:58:36;100137.38;;;17.43;100.00
47104;BME280;32853;52.164;5.400;2022-10-24T06:01:01;100146.72;;;17.47;100.00
47104;BME280;32853;52.164;5.400;2022-10-24T06:03:27;100048.53;;;16.86;100.00
47104;BME280;32853;52.164;5.400;2022-10-24T06:05:52;100078.06;;;17.02;100.00
47104;BME280;32853;52.164;5.400;2022-10-24T06:08:33;100077.94;;;17.15;100.00
47104;BME280;32853;52.164;5.400;2022-10-24T06:11:11;100088.75;;;17.23;100.00
47104;BME280;32853;52.164;5.400;2022-10-24T06:13:36;100077.81;;;16.94;100.00
47104;BME280;32853;52.164;5.400;2022-10-24T06:16:16;100136.66;;;17.52;100.00
47104;BME280;32853;52.164;5.400;2022-10-24T06:18:41;100052.84;;;16.98;100.00
47104;BME280;32853;52.164;5.400;2022-10-24T06:21:07;100109.50;;;17.39;100.00
47104;BME280;32853;52.164;5.400;2022-10-24T06:23:34;100082.38;;;17.14;100.00
47104;BME280;32853;52.164;5.400;2022-10-24T06:25:59;100127.53;;;17.45;100.00
47104;BME280;32853;52.164;5.400;2022-10-24T06:28:25;100152.59;;;17.51;100.00
47104;BME280;32853;52.164;5.400;2022-10-24T06:30:50;100149.13;;;17.50;100.00
47104;BME280;32853;52.164;5.400;2022-10-24T06:33:16;100154.91;;;17.55;100.00
47104;BME280;32853;52.164;5.400;2022-10-24T06:35:44;100159.25;;;17.45;100.00
47104;BME280;32853;52.164;5.400;2022-10-24T06:38:10;100163.09;;;17.41;100.00
47104;BME280;32853;52.164;5.400;2022-10-24T06:40:36;100003.00;;;16.60;100.00
47104;BME280;32853;52.164;5.400;2022-10-24T06:43:04;100070.38;;;17.10;100.00
47104;BME280;32853;52.164;5.400;2022-10-24T06:45:30;100117.22;;;17.20;100.00
47104;BME280;32853;52.164;5.400;2022-10-24T06:48:19;100147.22;;;17.63;100.00
47104;BME280;32853;52.164;5.400;2022-10-24T06:50:50;100163.69;;;17.56;100.00
47104;BME280;32853;52.164;5.400;2022-10-24T06:53:15;100038.16;;;16.61;100.00
47104;BME280;32853;52.164;5.400;2022-10-24T06:55:41;100065.34;;;16.85;100.00
47104;BME280;32853;52.164;5.400;2022-10-24T06:58:10;100169.31;;;17.40;100.00
47104;BME280;32853;52.164;5.400;2022-10-24T07:00:42;100105.69;;;16.98;100.00
47104;BME280;32853;52.164;5.400;2022-10-24T07:03:13;99987.75;;;16.19;100.00
47104;BME280;32853;52.164;5.400;2022-10-24T07:05:39;100182.06;;;17.46;100.00
47104;BME280;32853;52.164;5.400;2022-10-24T07:08:08;100180.13;;;17.48;100.00
47104;BME280;32853;52.164;5.400;2022-10-24T07:10:34;100185.44;;;17.48;100.00
47104;BME280;32853;52.164;5.400;2022-10-24T07:13:05;100107.84;;;16.93;100.00
47104;BME280;32853;52.164;5.400;2022-10-24T07:15:30;100012.34;;;16.31;100.00
47104;BME280;32853;52.164;5.400;2022-10-24T07:18:04;100144.34;;;17.10;100.00
47104;BME280;32853;52.164;5.400;2022-10-24T07:20:29;100166.81;;;17.27;100.00
47104;BME280;32853;52.164;5.400;2022-10-24T07:22:54;100190.13;;;17.45;100.00
47104;BME280;32853;52.164;5.400;2022-10-24T07:25:20;100201.16;;;17.50;100.00
47104;BME280;32853;52.164;5.400;2022-10-24T07:27:45;100198.53;;;17.38;100.00
47104;BME280;32853;52.164;5.400;2022-10-24T07:30:16;100203.22;;;17.35;100.00
47104;BME280;32853;52.164;5.400;2022-10-24T07:32:42;100113.97;;;16.94;100.00
47104;BME280;32853;52.164;5.400;2022-10-24T07:35:11;100088.75;;;16.78;100.00
47104;BME280;32853;52.164;5.400;2022-10-24T07:37:37;100109.16;;;16.88;100.00
47104;BME280;32853;52.164;5.400;2022-10-24T07:40:15;100117.56;;;17.04;100.00
47104;BME280;32853;52.164;5.400;2022-10-24T07:42:40;100210.69;;;17.63;100.00
47104;BME280;32853;52.164;5.400;2022-10-24T07:45:11;100232.06;;;17.71;100.00
47104;BME280;32853;52.164;5.400;2022-10-24T07:47:36;100142.56;;;17.11;100.00
47104;BME280;32853;52.164;5.400;2022-10-24T07:50:03;100039.97;;;16.49;100.00
47104;BME280;32853;52.164;5.400;2022-10-24T07:52:31;100177.25;;;17.18;100.00
47104;BME280;32853;52.164;5.400;2022-10-24T07:55:04;100253.34;;;17.70;100.00
47104;BME280;32853;52.164;5.400;2022-10-24T07:57:31;100239.75;;;17.52;100.00
47104;BME280;32853;52.164;5.400;2022-10-24T07:59:57;100186.28;;;17.26;100.00
47104;BME280;32853;52.164;5.400;2022-10-24T08:02:23;100257.31;;;17.53;100.00
47104;BME280;32853;52.164;5.400;2022-10-24T08:04:50;100214.16;;;17.30;100.00
47104;BME280;32853;52.164;5.400;2022-10-24T08:07:17;100109.94;;;16.54;100.00
47104;BME280;32853;52.164;5.400;2022-10-24T08:09:51;100218.59;;;17.30;100.00
47104;BME280;32853;52.164;5.400;2022-10-24T08:12:22;100277.72;;;17.62;100.00
47104;BME280;32853;52.164;5.400;2022-10-24T08:14:47;100218.13;;;17.36;100.00
47104;BME280;32853;52.164;5.400;2022-10-24T08:17:18;100268.75;;;17.76;100.00
47104;BME280;32853;52.164;5.400;2022-10-24T08:19:50;100245.38;;;17.59;100.00
47104;BME280;32853;52.164;5.400;2022-10-24T08:22:16;100273.09;;;17.77;100.00
47104;BME280;32853;52.164;5.400;2022-10-24T08:24:51;100209.94;;;17.39;100.00
47104;BME280;32853;52.164;5.400;2022-10-24T08:27:16;100267.25;;;17.61;100.00
47104;BME280;32853;52.164;5.400;2022-10-24T08:29:41;100214.47;;;17.14;100.00
47104;BME280;32853;52.164;5.400;2022-10-24T08:32:06;100284.25;;;17.69;100.00
47104;BME280;32853;52.164;5.400;2022-10-24T08:34:32;100101.66;;;16.59;100.00
47104;BME280;32853;52.164;5.400;2022-10-24T08:36:57;100243.44;;;17.27;100.00
47104;BME280;32853;52.164;5.400;2022-10-24T08:39:23;100291.06;;;17.61;100.00
47104;BME280;32853;52.164;5.400;2022-10-24T08:42:09;100264.59;;;17.38;100.00
47104;BME280;32853;52.164;5.400;2022-10-24T08:44:40;100251.50;;;17.37;100.00
47104;BME280;32853;52.164;5.400;2022-10-24T08:47:45;100301.50;;;17.51;100.00
47104;BME280;32853;52.164;5.400;2022-10-24T08:50:27;100302.97;;;17.55;100.00
47104;BME280;32853;52.164;5.400;2022-10-24T08:53:30;100302.25;;;17.64;100.00
47104;BME280;32853;52.164;5.400;2022-10-24T08:56:01;100299.13;;;17.59;100.00
47104;BME280;32853;52.164;5.400;2022-10-24T08:58:35;100257.75;;;17.25;100.00
47104;BME280;32853;52.164;5.400;2022-10-24T09:01:06;100307.03;;;17.48;100.00
47104;BME280;32853;52.164;5.400;2022-10-24T09:03:41;100251.72;;;17.11;100.00
47104;BME280;32853;52.164;5.400;2022-10-24T09:06:28;100240.44;;;17.09;100.00
47104;BME280;32853;52.164;5.400;2022-10-24T09:09:08;100232.16;;;17.14;100.00
47104;BME280;32853;52.164;5.400;2022-10-24T09:12:01;100314.38;;;17.56;100.00
47104;BME280;32853;52.164;5.400;2022-10-24T09:14:39;100315.66;;;17.39;100.00
47104;BME280;32853;52.164;5.400;2022-10-24T09:17:26;100331.56;;;17.61;100.00
47104;BME280;32853;52.164;5.400;2022-10-24T09:22:28;100310.16;;;17.31;100.00
47104;BME280;32853;52.164;5.400;2022-10-24T09:25:05;100354.16;;;17.43;100.00
47104;BME280;32853;52.164;5.400;2022-10-24T09:27:36;100261.13;;;16.80;100.00
47104;BME280;32853;52.164;5.400;2022-10-24T09:30:05;100347.41;;;17.50;100.00
47104;BME280;32853;52.164;5.400;2022-10-24T09:32:32;100340.38;;;17.27;100.00
47104;BME280;32853;52.164;5.400;2022-10-24T09:35:06;100343.41;;;17.22;100.00
47104;BME280;32853;52.164;5.400;2022-10-24T09:40:31;100299.41;;;17.10;100.00
47104;BME280;32853;52.164;5.400;2022-10-24T09:45:40;100382.28;;;17.55;100.00
47104;BME280;32853;52.164;5.400;2022-10-24T09:48:29;100342.75;;;17.07;100.00
47104;BME280;32853;52.164;5.400;2022-10-24T09:50:57;100345.84;;;17.01;100.00
47104;BME280;32853;52.164;5.400;2022-10-24T09:53:31;100391.13;;;17.32;100.00
47104;BME280;32853;52.164;5.400;2022-10-24T09:56:14;100403.22;;;17.23;100.00
47104;BME280;32853;52.164;5.400;2022-10-24T09:58:40;100396.38;;;17.21;100.00
47104;BME280;32853;52.164;5.400;2022-10-24T10:01:20;100405.47;;;17.17;100.00
47104;BME280;32853;52.164;5.400;2022-10-24T10:04:07;100369.41;;;16.80;100.00
47104;BME280;32853;52.164;5.400;2022-10-24T10:06:42;100435.44;;;17.04;100.00
47104;BME280;32853;52.164;5.400;2022-10-24T10:09:23;100433.56;;;17.18;100.00
47104;BME280;32853;52.164;5.400;2022-10-24T10:12:04;100356.34;;;16.90;100.00
47104;BME280;32853;52.164;5.400;2022-10-24T10:14:39;100256.22;;;16.39;100.00
47104;BME280;32853;52.164;5.400;2022-10-24T10:17:06;100314.94;;;16.67;100.00
47104;BME280;32853;52.164;5.400;2022-10-24T10:19:35;100269.53;;;16.62;100.00
47104;BME280;32853;52.164;5.400;2022-10-24T10:22:22;100303.13;;;16.60;100.00
47104;BME280;32853;52.164;5.400;2022-10-24T10:24:49;100448.28;;;17.57;100.00
47104;BME280;32853;52.164;5.400;2022-10-24T10:27:37;100437.09;;;17.53;100.00
47104;BME280;32853;52.164;5.400;2022-10-24T10:35:51;100446.63;;;17.67;100.00
47104;BME280;32853;52.164;5.400;2022-10-24T10:41:35;100461.44;;;17.69;100.00
47104;BME280;32853;52.164;5.400;2022-10-24T10:45:24;100465.97;;;17.67;100.00
47104;BME280;32853;52.164;5.400;2022-10-24T10:47:35;100416.53;;;17.57;100.00
47104;BME280;32853;52.164;5.400;2022-10-24T10:50:29;100465.25;;;18.00;100.00
47104;BME280;32853;52.164;5.400;2022-10-24T10:53:28;100476.13;;;18.20;100.00
47104;BME280;32853;52.164;5.400;2022-10-24T10:59:00;100484.41;;;18.26;100.00
47104;BME280;32853;52.164;5.400;2022-10-24T11:01:42;100486.19;;;18.15;100.00
47104;BME280;32853;52.164;5.400;2022-10-24T11:14:38;100483.31;;;18.18;100.00
47104;BME280;32853;52.164;5.400;2022-10-24T11:17:10;100467.84;;;17.78;100.00
47104;BME280;32853;52.164;5.400;2022-10-24T11:19:40;100489.66;;;18.04;100.00
47104;BME280;32853;52.164;5.400;2022-10-24T11:22:20;100506.03;;;17.98;100.00
47104;BME280;32853;52.164;5.400;2022-10-24T11:25:24;100525.38;;;17.98;100.00
47104;BME280;32853;52.164;5.400;2022-10-24T11:28:09;100503.94;;;17.90;100.00
47104;BME280;32853;52.164;5.400;2022-10-24T11:30:55;100521.75;;;17.88;100.00
47104;BME280;32853;52.164;5.400;2022-10-24T11:39:43;100531.69;;;17.61;100.00
47104;BME280;32853;52.164;5.400;2022-10-24T11:48:21;100471.00;;;16.88;100.00
47104;BME280;32853;52.164;5.400;2022-10-24T11:53:58;100482.91;;;16.93;100.00
47104;BME280;32853;52.164;5.400;2022-10-24T11:59:32;100542.75;;;17.31;100.00
47104;BME280;32853;52.164;5.400;2022-10-24T12:11:04;100563.50;;;17.48;100.00
47104;BME280;32853;52.164;5.400;2022-10-24T12:14:08;100549.53;;;17.46;100.00
47104;BME280;32853;52.164;5.400;2022-10-24T12:17:05;100561.69;;;17.49;100.00
47104;BME280;32853;52.164;5.400;2022-10-24T12:19:41;100520.53;;;17.33;100.00
47104;BME280;32853;52.164;5.400;2022-10-24T12:22:16;100385.63;;;16.50;100.00
47104;BME280;32853;52.164;5.400;2022-10-24T12:24:45;100564.50;;;17.58;100.00
47104;BME280;32853;52.164;5.400;2022-10-24T12:27:29;100539.03;;;17.33;100.00
47104;BME280;32853;52.164;5.400;2022-10-24T12:30:13;100546.66;;;17.25;100.00
47104;BME280;32853;52.164;5.400;2022-10-24T12:32:44;100575.44;;;17.54;100.00
47104;BME280;32853;52.164;5.400;2022-10-24T12:37:55;100554.09;;;17.44;100.00
47104;BME280;32853;52.164;5.400;2022-10-24T12:43:35;100568.50;;;17.64;100.00
47104;BME280;32853;52.164;5.400;2022-10-24T12:48:37;100521.91;;;17.50;100.00
47104;BME280;32853;52.164;5.400;2022-10-24T12:59:32;100603.09;;;17.61;100.00
47104;BME280;32853;52.164;5.400;2022-10-24T13:19:14;100573.56;;;16.94;100.00
47104;BME280;32853;52.164;5.400;2022-10-24T13:21:51;100573.47;;;16.95;100.00
47104;BME280;32853;52.164;5.400;2022-10-24T13:31:54;100469.50;;;16.09;100.00
47104;BME280;32853;52.164;5.400;2022-10-24T13:34:44;100452.28;;;15.90;100.00
47104;BME280;32853;52.164;5.400;2022-10-24T13:40:06;100587.53;;;16.70;100.00
47104;BME280;32853;52.164;5.400;2022-10-24T13:42:36;100582.16;;;16.72;100.00
47104;BME280;32853;52.164;5.400;2022-10-24T13:47:51;100531.13;;;16.59;100.00
47104;BME280;32853;52.164;5.400;2022-10-24T13:50:22;100491.66;;;16.44;100.00
47104;BME280;32853;52.164;5.400;2022-10-24T13:52:57;100595.41;;;17.21;100.00
47104;BME280;32853;52.164;5.400;2022-10-24T13:55:29;100599.59;;;17.36;100.00
47104;BME280;32853;52.164;5.400;2022-10-24T13:58:08;100605.03;;;17.22;100.00
47104;BME280;32853;52.164;5.400;2022-10-24T14:00:37;100541.56;;;16.60;100.00
47104;BME280;32853;52.164;5.400;2022-10-24T14:03:09;100541.47;;;16.49;100.00
47104;BME280;32853;52.164;5.400;2022-10-24T14:05:44;100635.63;;;16.88;100.00
47104;BME280;32853;52.164;5.400;2022-10-24T14:10:45;100543.16;;;16.37;100.00
47104;BME280;32853;52.164;5.400;2022-10-24T14:13:16;100441.50;;;15.81;100.00
47104;BME280;32853;52.164;5.400;2022-10-24T14:15:48;100606.56;;;16.88;100.00
47104;BME280;32853;52.164;5.400;2022-10-24T14:18:14;100616.28;;;16.88;100.00
47104;BME280;32853;52.164;5.400;2022-10-24T14:20:41;100598.41;;;16.91;100.00
47104;BME280;32853;52.164;5.400;2022-10-24T14:23:26;100611.59;;;17.04;100.00
47104;BME280;32853;52.164;5.400;2022-10-24T14:25:58;100470.00;;;16.14;100.00
47104;BME280;32853;52.164;5.400;2022-10-24T14:28:35;100630.75;;;17.07;100.00
47104;BME280;32853;52.164;5.400;2022-10-24T14:31:07;100543.91;;;16.52;100.00
47104;BME280;32853;52.164;5.400;2022-10-24T14:33:47;100607.28;;;17.03;100.00
47104;BME280;32853;52.164;5.400;2022-10-24T14:36:16;100629.13;;;17.18;100.00
47104;BME280;32853;52.164;5.400;2022-10-24T14:38:47;100541.38;;;16.63;100.00
47104;BME280;32853;52.164;5.400;2022-10-24T14:41:15;100533.47;;;16.63;100.00
47104;BME280;32853;52.164;5.400;2022-10-24T14:43:46;100625.22;;;17.23;100.00
47104;BME280;32853;52.164;5.400;2022-10-24T14:48:48;100631.84;;;17.29;100.00
47104;BME280;32853;52.164;5.400;2022-10-24T14:51:30;100499.78;;;16.54;100.00
47104;BME280;32853;52.164;5.400;2022-10-24T14:54:29;100627.09;;;17.34;100.00
47104;BME280;32853;52.164;5.400;2022-10-24T14:57:15;100633.59;;;17.54;100.00
47104;BME280;32853;52.164;5.400;2022-10-24T14:59:43;100633.88;;;17.75;100.00
47104;BME280;32853;52.164;5.400;2022-10-24T15:02:29;100639.91;;;17.64;100.00
47104;BME280;32853;52.164;5.400;2022-10-24T15:07:54;100565.50;;;17.21;100.00
47104;BME280;32853;52.164;5.400;2022-10-24T15:10:35;100613.00;;;17.46;100.00
47104;BME280;32853;52.164;5.400;2022-10-24T15:13:13;100575.75;;;17.12;100.00
47104;BME280;32853;52.164;5.400;2022-10-24T15:15:48;100568.78;;;17.11;100.00
47104;BME280;32853;52.164;5.400;2022-10-24T15:18:44;100645.81;;;17.67;100.00
47104;BME280;32853;52.164;5.400;2022-10-24T15:21:16;100572.41;;;17.10;100.00
47104;BME280;32853;52.164;5.400;2022-10-24T15:23:54;100583.16;;;17.20;100.00
47104;BME280;32853;52.164;5.400;2022-10-24T15:26:40;100650.81;;;17.59;100.00
47104;BME280;32853;52.164;5.400;2022-10-24T15:29:20;100628.75;;;17.48;100.00
47104;BME280;32853;52.164;5.400;2022-10-24T15:31:48;100648.94;;;17.49;100.00